Central Heights, Iowa
Current Conditions -  °F | °C
As of 8:53 PM on Thursday 27 Nov 2014 (Local Time) from KMCW Reporting Station
Overcast Overcast  
Wind Chill: -9°   Ceiling: 4200
Heat Index:   Visibility: 10mi
Dew Point:   Wind: 13mph
Humidity: 73%   Direction: 160°SSE
Pressure: 30.32"   Gusts: NA
Location:  43.1451°N, 93.1385°W
Report Text: KMCW 280253Z AUTO 16011KT 10SM OVC042 M14/M18 A3032 RMK AO2 UPE38 SLP294 P0000 60000 T11391178 58019
Loading
Personal Weather Stations






























Interactive Weather Map New forecast layout! Learn more

10-Day Weather Forecast

Advertisements
Track Severe Weather on mobile